Time;durP1;ratioP1;P1;durP2;ratioP2;P2;SDS_P1;SDS_P2;PMS_P1;PMS_P2;Temp;Humidity;BMP_temperature;BMP_pressure;BME280_temperature;BME280_humidity;BME280_pressure;Samples;Min_cycle;Max_cycle;Signal;HPM_P1;HPM_P2
2021/11/25 00:16:41;;;;;;;;;;;;;;;;;;;;;
2021/11/25 00:19:51;;;;;;;78.03;48.78;;;204.90;2252.80;;;;;;5075540;28;19904;-88
2021/11/25 00:23:18;;;;;;;;;;;;;;;;;;;;;
2021/11/25 00:26:29;;;;;;;;;;;;;;;;;;;;;
2021/11/25 00:36:54;;;;;;;67.63;43.15;;;179.90;2252.80;;;;;;5053853;28;20112;-87
2021/11/25 01:34:55;;;;;;;89.13;56.88;;;154.30;2252.80;;;;;;4860305;29;20047;-88
2021/11/25 01:37:28;;;;;;;82.35;53.92;;;154.40;2252.80;;;;;;4916207;29;20039;-88
2021/11/25 01:40:21;;;;;;;73.38;47.92;;;154.30;2252.80;;;;;;4997316;28;20037;-88
2021/11/25 01:43:41;;;;;;;;;;;;;;;;;;;;;
2021/11/25 01:57:50;;;;;;;90.05;54.30;;;154.20;2252.80;;;;;;5075430;28;20047;-89
2021/11/25 02:15:00;;;;;;;58.35;39.58;;;153.80;2252.80;;;;;;4993843;28;20033;-90
2021/11/25 02:21:58;;;;;;;100.53;68.25;;;154.10;2252.80;;;;;;4987823;28;20032;-88
2021/11/25 02:25:23;;;;;;;124.28;75.65;;;154.00;2252.80;;;;;;4995585;28;20034;-89
2021/11/25 02:31:58;;;;;;;144.20;90.93;;;154.10;2252.80;;;;;;4992296;28;20033;-89
2021/11/25 02:53:13;;;;;;;;;;;;;;;;;;;;;
2021/11/25 03:14:00;;;;;;;114.80;70.13;;;153.80;2252.80;;;;;;4881932;29;20056;-90
2021/11/25 03:57:43;;;;;;;131.05;82.47;;;153.90;2252.80;;;;;;4975606;28;20037;-89
2021/11/25 04:00:14;;;;;;;130.13;84.93;;;153.80;2252.80;;;;;;4978858;28;20053;-89
2021/11/25 04:02:44;;;;;;;138.05;87.35;;;128.90;2252.80;;;;;;4978629;28;20026;-89
2021/11/25 04:05:18;;;;;;;132.02;82.25;;;153.70;2252.80;;;;;;4981882;28;20121;-89
2021/11/25 04:07:57;;;;;;;117.57;69.97;;;154.00;2252.80;;;;;;5042080;28;20524;-88
2021/11/25 04:10:32;;;;;;;108.95;65.05;;;153.70;2252.80;;;;;;5075058;28;20024;-88
2021/11/25 04:13:09;;;;;;;106.05;68.05;;;153.90;2252.80;;;;;;5075262;28;20033;-89
2021/11/25 04:19:47;;;;;;;81.25;50.63;;;154.20;2252.80;;;;;;5062064;28;20119;-89
2021/11/25 04:36:59;;;;;;;;;;;;;;;;;;;;;
2021/11/25 04:40:02;;;;;;;;;;;;;;;;;;;;;
2021/11/25 04:42:54;;;;;;;;;;;;;;;;;;;;;
2021/11/25 04:52:27;;;;;;;99.63;56.47;;;154.10;2252.80;;;;;;4994110;28;20503;-89
2021/11/25 05:03:06;;;;;;;;;;;;;;;;;;;;;
2021/11/25 05:06:26;;;;;;;68.03;46.70;;;154.10;2252.80;;;;;;4954701;29;20042;-88
2021/11/25 05:09:32;;;;;;;69.95;46.97;;;154.10;2252.80;;;;;;4851131;29;20049;-88
2021/11/25 05:22:50;;;;;;;;;;;;;;;;;;;;;
2021/11/25 05:25:59;;;;;;;97.85;59.20;;;154.20;2252.80;;;;;;5054440;28;20033;-88
2021/11/25 05:28:52;;;;;;;119.88;73.05;;;154.20;2252.80;;;;;;5052324;28;20037;-88
2021/11/25 05:31:30;;;;;;;123.68;72.90;;;128.90;2252.80;;;;;;5053867;28;20123;-89
2021/11/25 05:58:56;;;;;;;;;;;;;;;;;;;;;
2021/11/25 06:01:47;;;;;;;145.93;96.10;;;153.90;2252.80;;;;;;4976081;28;20046;-88
2021/11/25 06:04:26;;;;;;;188.32;121.32;;;153.80;2252.80;;;;;;4991348;28;20053;-88
2021/11/25 06:06:55;;;;;;;275.67;163.88;;;154.00;2252.80;;;;;;5081433;28;20032;-87
2021/11/25 06:09:31;;;;;;;230.27;145.07;;;154.00;2252.80;;;;;;5078509;28;20033;-88
2021/11/25 06:12:00;;;;;;;197.35;119.10;;;154.10;2252.80;;;;;;5082223;28;20059;-87
2021/11/25 06:14:26;;;;;;;184.07;115.85;;;154.10;2252.80;;;;;;5086028;28;20481;-87
2021/11/25 06:17:01;;;;;;;170.25;108.43;;;154.00;2252.80;;;;;;5079667;28;20099;-87
2021/11/25 06:19:30;;;;;;;144.73;97.85;;;154.10;2252.80;;;;;;5078752;28;20017;-87
2021/11/25 06:25:31;;;;;;;;;;;;;;;;;;;;;
2021/11/25 06:28:21;;;;;;;205.63;131.98;;;154.10;2252.80;;;;;;5074832;28;20021;-88
2021/11/25 06:30:50;;;;;;;160.20;106.07;;;154.10;2252.80;;;;;;5073759;28;20032;-89
2021/11/25 06:40:50;;;;;;;220.15;134.52;;;154.10;2252.80;;;;;;4973216;28;20046;-88
2021/11/25 06:44:16;;;;;;;217.43;127.63;;;154.00;2252.80;;;;;;4976957;28;20104;-89
2021/11/25 06:47:17;;;;;;;198.40;127.72;;;154.10;2252.80;;;;;;5070241;28;20477;-88
2021/11/25 06:50:09;;;;;;;195.82;127.43;;;153.90;2252.80;;;;;;5076634;28;20051;-88
2021/11/25 06:53:13;;;;;;;204.00;132.32;;;154.10;2252.80;;;;;;5076978;28;20178;-88
2021/11/25 06:59:24;;;;;;;231.13;145.27;;;154.10;2252.80;;;;;;5078227;28;20081;-90
2021/11/25 07:02:13;;;;;;;259.52;153.20;;;153.90;2252.80;;;;;;5079968;28;20036;-89
2021/11/25 07:05:14;;;;;;;267.80;162.77;;;154.10;2252.80;;;;;;5076312;28;20048;-89
2021/11/25 07:08:27;;;;;;;307.63;184.20;;;154.10;2252.80;;;;;;5075707;28;20032;-89
2021/11/25 07:11:34;;;;;;;391.83;229.27;;;154.20;2252.80;;;;;;5076438;28;20027;-88
2021/11/25 07:16:59;;;;;;;352.75;217.60;;;154.00;2252.80;;;;;;5066796;28;20060;-89
2021/11/25 07:19:57;;;;;;;342.92;221.35;;;153.70;2252.80;;;;;;5075812;28;20028;-89
2021/11/25 07:22:35;;;;;;;327.45;215.50;;;154.10;2252.80;;;;;;5038244;28;20468;-88
2021/11/25 07:25:11;;;;;;;308.77;209.32;;;153.90;2252.80;;;;;;5076076;28;20020;-89
2021/11/25 07:27:38;;;;;;;292.35;187.35;;;153.90;2252.80;;;;;;5075806;28;20078;-88
2021/11/25 07:30:14;;;;;;;298.17;201.40;;;154.20;2252.80;;;;;;5075905;28;20055;-90
2021/11/25 07:33:11;;;;;;;315.90;212.52;;;154.20;2252.80;;;;;;5073284;28;20060;-88
2021/11/25 07:39:30;;;;;;;258.20;167.82;;;154.20;2252.80;;;;;;5075474;28;20395;-89
2021/11/25 07:41:59;;;;;;;201.60;132.90;;;154.40;2252.80;;;;;;5075552;28;20032;-89
2021/11/25 07:44:30;;;;;;;193.80;130.48;;;154.20;2252.80;;;;;;5075351;28;20028;-88
2021/11/25 07:47:32;;;;;;;201.02;137.00;;;154.30;2252.80;;;;;;5075741;28;20416;-90
2021/11/25 07:50:26;;;;;;;195.07;132.43;;;154.30;2252.80;;;;;;5075641;28;20051;-89
2021/11/25 07:52:55;;;;;;;181.95;125.90;;;154.50;2252.80;;;;;;5075669;28;20024;-89
2021/11/25 07:55:25;;;;;;;198.88;140.70;;;179.20;2252.80;;;;;;5075715;28;20021;-88
2021/11/25 07:58:20;;;;;;;181.77;135.32;;;154.50;2252.80;;;;;;5075647;28;20166;-91
2021/11/25 08:01:40;;;;;;;189.60;129.02;;;179.40;2252.80;;;;;;5076257;28;20021;-88
2021/11/25 08:04:15;;;;;;;341.38;226.57;;;179.50;2252.80;;;;;;4982696;28;20508;-87
2021/11/25 08:07:42;;;;;;;169.80;120.05;;;179.60;2252.80;;;;;;5015570;28;20054;-88
2021/11/25 08:11:18;;;;;;;141.82;102.18;;;179.70;2252.80;;;;;;5053833;28;20441;-90
2021/11/25 08:13:58;;;;;;;99.10;72.20;;;179.80;2252.80;;;;;;4937276;29;20039;-89
2021/11/25 08:16:57;;;;;;;;;;;;;;;;;;;;;
2021/11/25 08:20:00;;;;;;;108.35;78.28;;;180.00;2252.80;;;;;;5010706;28;20034;-88
2021/11/25 08:22:31;;;;;;;100.75;74.35;;;180.10;2252.80;;;;;;4998429;28;20026;-88
2021/11/25 08:25:11;;;;;;;100.82;74.63;;;180.10;2252.80;;;;;;4997986;28;20084;-88
2021/11/25 08:27:50;;;;;;;99.85;69.20;;;204.80;2252.80;;;;;;4998343;28;20057;-88
2021/11/25 08:30:21;;;;;;;104.35;71.30;;;204.90;2252.80;;;;;;4997623;28;20520;-88
2021/11/25 08:33:26;;;;;;;99.45;68.80;;;205.00;2252.80;;;;;;4997904;28;20029;-89
2021/11/25 08:42:36;;;;;;;95.40;67.90;;;205.30;2252.80;;;;;;4986900;28;20036;-88
2021/11/25 08:45:03;;;;;;;100.45;70.70;;;205.50;2252.80;;;;;;5016652;28;20021;-88
2021/11/25 08:51:04;;;;;;;;;;;;;;;;;;;;;
2021/11/25 08:53:39;;;;;;;89.35;63.88;;;230.40;2252.80;;;;;;5028987;28;20055;-93
2021/11/25 08:56:31;;;;;;;94.55;65.53;;;230.50;2252.80;;;;;;5078044;28;20051;-93
2021/11/25 09:23:55;;;;;;;54.80;40.20;;;256.10;2252.80;;;;;;4991372;28;20053;-89
2021/11/25 09:26:30;;;;;;;48.33;35.83;;;256.30;2252.80;;;;;;5023007;28;20036;-89
2021/11/25 09:28:58;;;;;;;53.80;35.28;;;256.40;2252.80;;;;;;5058042;28;20032;-84
2021/11/25 09:31:30;;;;;;;65.05;43.90;;;256.60;2252.80;;;;;;5056220;28;20075;-84
2021/11/25 09:33:56;;;;;;;44.38;29.85;;;256.90;2252.80;;;;;;5073656;28;20020;-82
2021/11/25 09:36:23;;;;;;;35.05;27.45;;;281.70;2278.40;;;;;;5074049;28;20027;-83
2021/11/25 09:38:49;;;;;;;37.20;26.25;;;281.90;2278.40;;;;;;5056041;28;20377;-81
2021/11/25 09:41:15;;;;;;;41.10;29.13;;;282.00;2278.40;;;;;;5073214;28;20032;-83
2021/11/25 09:43:42;;;;;;;37.33;27.73;;;282.10;2278.40;;;;;;5055838;28;20047;-82
2021/11/25 09:46:09;;;;;;;38.17;28.88;;;282.20;2278.40;;;;;;5074312;28;20379;-81
2021/11/25 09:48:37;;;;;;;39.10;28.95;;;282.30;2278.40;;;;;;5073428;28;20064;-82
2021/11/25 09:51:04;;;;;;;46.80;34.50;;;282.40;2278.40;;;;;;5055952;28;20028;-81
2021/11/25 09:53:30;;;;;;;50.35;31.20;;;282.50;2278.40;;;;;;5055314;28;20027;-82
2021/11/25 09:55:59;;;;;;;40.67;31.23;;;307.20;2304.00;;;;;;5055670;28;20119;-83
2021/11/25 09:58:28;;;;;;;39.92;30.13;;;307.30;2304.00;;;;;;5056017;28;20036;-81
2021/11/25 10:01:16;;;;;;;41.45;29.95;;;307.50;2304.00;;;;;;5055435;28;20178;-81
2021/11/25 10:03:48;;;;;;;43.17;30.85;;;307.60;2304.00;;;;;;5055606;28;20025;-82
2021/11/25 10:06:18;;;;;;;36.80;30.17;;;307.50;2304.00;;;;;;5055748;28;20058;-81
2021/11/25 10:08:48;;;;;;;58.13;43.50;;;307.60;2304.00;;;;;;5073269;28;20028;-81
2021/11/25 10:11:34;;;;;;;59.30;43.88;;;307.60;2304.00;;;;;;5073164;28;20044;-83
2021/11/25 10:14:34;;;;;;;50.42;37.08;;;307.80;2304.00;;;;;;5072923;28;20485;-80
2021/11/25 10:17:00;;;;;;;45.63;34.53;;;307.90;2304.00;;;;;;5055256;28;20033;-80
2021/11/25 10:19:29;;;;;;;38.72;28.15;;;307.80;2304.00;;;;;;5073652;28;20033;-80
2021/11/25 10:21:57;;;;;;;38.25;28.50;;;307.80;2304.00;;;;;;5059997;28;20120;-79
2021/11/25 10:24:45;;;;;;;43.08;32.20;;;307.90;2304.00;;;;;;5067447;28;20102;-81
2021/11/25 10:27:25;;;;;;;37.13;27.33;;;307.90;2304.00;;;;;;5079640;28;20028;-81
2021/11/25 10:30:10;;;;;;;32.53;25.02;;;307.90;2304.00;;;;;;5079377;28;20066;-80
2021/11/25 10:32:36;;;;;;;41.55;29.17;;;307.80;2304.00;;;;;;5098713;28;20473;-80
2021/11/25 10:35:29;;;;;;;39.17;28.42;;;307.90;2304.00;;;;;;5079449;28;20031;-81
2021/11/25 10:38:45;;;;;;;37.45;27.30;;;308.10;2304.00;;;;;;5079090;28;20042;-80
2021/11/25 10:40:46;;;;;;;40.33;28.48;;;308.10;2304.00;;;;;;5088785;28;20417;-81
2021/11/25 10:43:19;;;;;;;39.67;29.33;;;308.10;2304.00;;;;;;5079014;28;20030;-82
2021/11/25 10:45:48;;;;;;;34.05;27.80;;;332.80;2329.60;;;;;;5079496;28;20461;-80
2021/11/25 10:48:26;;;;;;;36.03;27.85;;;332.80;2329.60;;;;;;5097282;28;20024;-80
2021/11/25 10:50:52;;;;;;;36.00;26.23;;;332.90;2329.60;;;;;;5078961;28;20050;-80
2021/11/25 10:53:18;;;;;;;39.15;29.02;;;333.00;2329.60;;;;;;5079120;28;20230;-81
2021/11/25 10:55:44;;;;;;;33.58;23.50;;;333.00;2329.60;;;;;;5096855;28;20023;-80
2021/11/25 10:58:11;;;;;;;31.05;23.63;;;333.10;2329.60;;;;;;5078800;28;20070;-82
2021/11/25 11:00:40;;;;;;;42.40;27.52;;;333.20;2329.60;;;;;;5096971;28;20028;-80
2021/11/25 11:03:09;;;;;;;35.33;26.85;;;333.40;2329.60;;;;;;5077914;28;20118;-80
2021/11/25 11:05:48;;;;;;;33.70;24.83;;;333.30;2329.60;;;;;;5078339;28;20024;-81
2021/11/25 11:08:16;;;;;;;35.78;26.10;;;333.50;2329.60;;;;;;5078940;28;20032;-81
2021/11/25 11:11:00;;;;;;;48.00;33.63;;;333.70;2329.60;;;;;;5078927;28;20028;-80
2021/11/25 11:16:11;;;;;;;49.35;27.85;;;358.60;2329.60;;;;;;5097607;28;20027;-81
2021/11/25 11:18:52;;;;;;;33.35;22.05;;;358.80;2329.60;;;;;;5096462;28;20035;-81
2021/11/25 11:21:33;;;;;;;31.95;22.25;;;359.00;2329.60;;;;;;5078713;28;20025;-80
2021/11/25 11:24:09;;;;;;;34.70;21.50;;;359.10;2329.60;;;;;;5078265;28;20112;-80
2021/11/25 11:26:39;;;;;;;33.42;23.50;;;359.20;2329.60;;;;;;5078311;28;20024;-81
2021/11/25 11:29:05;;;;;;;37.00;23.75;;;384.00;2329.60;;;;;;5096248;28;20032;-81
2021/11/25 11:31:35;;;;;;;44.55;22.00;;;384.10;2329.60;;;;;;5077498;28;20024;-78
2021/11/25 11:34:03;;;;;;;40.08;22.88;;;384.30;2329.60;;;;;;5077538;28;20453;-79
2021/11/25 11:36:30;;;;;;;34.85;23.63;;;384.40;2329.60;;;;;;5078267;28;20064;-76
2021/11/25 11:38:59;;;;;;;31.55;21.67;;;384.70;2329.60;;;;;;5095448;28;20020;-79
2021/11/25 11:41:31;;;;;;;25.08;19.85;;;384.90;2329.60;;;;;;5096054;28;20024;-77
2021/11/25 11:44:01;;;;;;;;;;;409.60;2355.20;;;;;;5077781;28;20027;-78
2021/11/25 11:46:28;;;;;;;26.05;20.35;;;409.70;2355.20;;;;;;5095735;28;19904;-79
2021/11/25 11:48:56;;;;;;;27.42;19.55;;;409.70;2355.20;;;;;;5077553;28;20032;-77
2021/11/25 11:51:22;;;;;;;24.90;17.50;;;409.90;2355.20;;;;;;5076595;28;20027;-76
2021/11/25 11:53:54;;;;;;;24.05;19.65;;;410.00;2355.20;;;;;;5077633;28;20024;-78
2021/11/25 11:56:32;;;;;;;23.38;18.35;;;410.20;2355.20;;;;;;5096402;28;20107;-78
2021/11/25 11:58:59;;;;;;;29.52;18.00;;;410.30;2355.20;;;;;;5077710;28;20028;-81
2021/11/25 12:01:28;;;;;;;35.20;19.98;;;410.50;2355.20;;;;;;5095089;28;20044;-78
2021/11/25 12:04:10;;;;;;;32.35;27.77;;;410.50;2355.20;;;;;;5077562;28;20111;-80
2021/11/25 12:06:37;;;;;;;17.48;14.35;;;410.40;2355.20;;;;;;5077793;28;20416;-79
2021/11/25 12:09:15;;;;;;;20.08;14.73;;;410.50;2355.20;;;;;;5077339;28;20032;-80
2021/11/25 12:11:47;;;;;;;18.02;13.30;;;410.50;2355.20;;;;;;5077286;28;20067;-80
2021/11/25 12:14:24;;;;;;;12.80;10.35;;;435.20;2355.20;;;;;;5077368;28;20095;-80
2021/11/25 12:17:11;;;;;;;25.65;19.50;;;435.20;2304.00;;;;;;5076863;28;20032;-81
2021/11/25 12:19:46;;;;;;;22.45;16.77;;;435.30;2278.40;;;;;;5095114;28;20031;-80
2021/11/25 12:22:12;;;;;;;16.92;11.75;;;435.40;2304.00;;;;;;5077239;28;20028;-78
2021/11/25 12:25:00;;;;;;;22.05;15.82;;;435.30;2227.20;;;;;;5077155;28;20367;-80
2021/11/25 12:27:32;;;;;;;28.58;19.33;;;435.40;2252.80;;;;;;5095726;28;20024;-80
2021/11/25 12:30:05;;;;;;;14.82;11.30;;;435.50;2252.80;;;;;;5076988;28;20020;-79
2021/11/25 12:32:41;;;;;;;13.77;10.63;;;435.40;2252.80;;;;;;5077187;28;20056;-80
2021/11/25 12:35:20;;;;;;;14.90;10.93;;;435.30;2252.80;;;;;;5076754;28;20114;-79
2021/11/25 12:38:08;;;;;;;21.55;13.98;;;435.20;2252.80;;;;;;5095110;28;20020;-79
2021/11/25 12:40:32;;;;;;;15.63;12.43;;;435.30;2252.80;;;;;;5094297;28;20114;-79
2021/11/25 12:43:09;;;;;;;20.40;15.52;;;435.30;2227.20;;;;;;5076334;28;20115;-79
2021/11/25 12:45:44;;;;;;;18.63;13.00;;;435.40;2227.20;;;;;;5076926;28;20035;-81
2021/11/25 12:48:15;;;;;;;19.45;10.52;;;435.30;2227.20;;;;;;5076709;28;20038;-80
2021/11/25 12:50:51;;;;;;;15.20;12.27;;;410.50;2227.20;;;;;;5076524;28;20024;-81
2021/11/25 12:53:35;;;;;;;19.05;15.30;;;410.50;2227.20;;;;;;5095001;28;20024;-79
2021/11/25 12:56:23;;;;;;;13.85;10.40;;;435.20;2252.80;;;;;;5076006;28;20385;-79
2021/11/25 12:59:04;;;;;;;18.48;13.82;;;410.50;2201.60;;;;;;5076621;28;20032;-77
2021/11/25 13:01:37;;;;;;;16.00;10.45;;;435.20;2227.20;;;;;;5094836;28;20358;-78
2021/11/25 13:04:20;;;;;;;16.10;14.05;;;410.50;2201.60;;;;;;5076344;28;20465;-78
2021/11/25 13:06:48;;;;;;;;;;;410.30;2227.20;;;;;;5076417;28;20030;-80
2021/11/25 13:09:22;;;;;;;18.15;14.20;;;410.30;2278.40;;;;;;5075506;28;20011;-78
2021/11/25 13:11:49;;;;;;;22.02;15.15;;;410.30;2278.40;;;;;;5075957;28;20035;-79
2021/11/25 13:14:21;;;;;;;16.50;13.40;;;410.20;2252.80;;;;;;5076274;28;20033;-81
2021/11/25 13:16:56;;;;;;;31.07;18.33;;;410.00;2278.40;;;;;;5094423;28;20024;-80
2021/11/25 13:19:24;;;;;;;23.38;17.63;;;409.80;2278.40;;;;;;5076137;28;20127;-78
2021/11/25 13:21:56;;;;;;;26.30;19.92;;;409.80;2329.60;;;;;;5074889;28;20035;-80
2021/11/25 13:24:30;;;;;;;23.50;17.60;;;409.70;2329.60;;;;;;5045637;28;20130;-78
2021/11/25 13:27:16;;;;;;;20.60;16.02;;;409.60;2355.20;;;;;;5084155;28;20125;-77
2021/11/25 13:29:47;;;;;;;22.27;17.00;;;384.90;2329.60;;;;;;5094792;28;20154;-79
2021/11/25 13:32:13;;;;;;;19.83;13.43;;;384.80;2329.60;;;;;;5094539;28;20040;-78
2021/11/25 13:34:39;;;;;;;16.98;13.38;;;384.70;2329.60;;;;;;5094126;28;20019;-78
2021/11/25 13:37:09;;;;;;;25.02;15.85;;;384.70;2329.60;;;;;;5095873;28;20028;-80
2021/11/25 13:39:42;;;;;;;15.68;12.50;;;384.80;2329.60;;;;;;5113905;28;20076;-81
2021/11/25 13:42:16;;;;;;;22.75;15.88;;;384.80;2329.60;;;;;;5096507;28;20023;-81
2021/11/25 13:44:44;;;;;;;20.92;15.63;;;384.90;2329.60;;;;;;5095648;28;20467;-80
2021/11/25 13:47:20;;;;;;;25.83;17.10;;;409.60;2355.20;;;;;;5113813;28;20023;-79
2021/11/25 13:50:03;;;;;;;29.45;21.88;;;409.60;2355.20;;;;;;5114326;28;20034;-80
2021/11/25 13:52:35;;;;;;;30.00;19.60;;;409.70;2355.20;;;;;;5112999;28;20416;-78
2021/11/25 13:55:04;;;;;;;51.28;29.75;;;409.60;2355.20;;;;;;5095563;28;20030;-79
2021/11/25 13:57:30;;;;;;;39.75;22.60;;;384.90;2329.60;;;;;;5114697;28;20103;-80
2021/11/25 13:59:56;;;;;;;35.22;19.13;;;384.70;2329.60;;;;;;5114166;28;20519;-78
2021/11/25 14:02:28;;;;;;;36.55;21.70;;;384.70;2329.60;;;;;;5096060;28;20024;-79
2021/11/25 14:05:00;;;;;;;29.75;18.80;;;384.70;2329.60;;;;;;5095841;28;20465;-77
2021/11/25 14:07:27;;;;;;;59.05;40.25;;;384.60;2329.60;;;;;;5113907;28;20080;-77
2021/11/25 14:10:17;;;;;;;42.17;28.20;;;384.30;2329.60;;;;;;5114254;28;20028;-80
2021/11/25 14:12:48;;;;;;;35.45;22.50;;;384.00;2329.60;;;;;;5095815;28;20107;-79
2021/11/25 14:15:29;;;;;;;39.97;24.70;;;359.30;2329.60;;;;;;5113550;28;20039;-79
2021/11/25 14:17:56;;;;;;;43.50;28.70;;;359.20;2329.60;;;;;;5095942;28;20028;-77
2021/11/25 14:20:24;;;;;;;26.98;19.23;;;359.10;2329.60;;;;;;5095095;28;20048;-79
2021/11/25 14:22:52;;;;;;;30.50;19.05;;;359.00;2329.60;;;;;;5095660;28;20377;-78
2021/11/25 14:25:33;;;;;;;24.10;17.52;;;358.90;2329.60;;;;;;5113343;28;20052;-79
2021/11/25 14:31:09;;;;;;;24.80;18.58;;;358.80;2329.60;;;;;;5113731;28;20065;-78
2021/11/25 14:33:46;;;;;;;24.98;16.20;;;358.70;2329.60;;;;;;5114017;28;20047;-80
2021/11/25 14:36:35;;;;;;;25.90;19.48;;;358.60;2329.60;;;;;;5095278;28;20024;-79
2021/11/25 14:39:17;;;;;;;25.35;17.23;;;358.50;2329.60;;;;;;5095558;28;20023;-77
2021/11/25 14:41:44;;;;;;;34.47;21.27;;;358.40;2329.60;;;;;;5095273;28;20023;-79
2021/11/25 14:44:17;;;;;;;52.38;39.05;;;333.70;2329.60;;;;;;5113693;28;20028;-79
2021/11/25 21:00:08;;;;;;;263.10;169.90;;;179.70;2252.80;;;;;;5111745;28;20038;-89
2021/11/25 21:02:34;;;;;;;252.68;161.80;;;179.80;2252.80;;;;;;5093489;28;20031;-85
2021/11/25 21:05:00;;;;;;;269.00;166.98;;;179.70;2252.80;;;;;;5093251;28;20490;-85
2021/11/25 21:07:26;;;;;;;246.70;164.00;;;179.50;2252.80;;;;;;5093289;28;20065;-87
2021/11/25 21:09:51;;;;;;;263.30;166.65;;;179.80;2252.80;;;;;;5093264;28;20024;-85
2021/11/25 21:12:17;;;;;;;284.88;179.13;;;179.90;2252.80;;;;;;5092918;28;20022;-86
2021/11/25 21:14:43;;;;;;;339.73;209.32;;;179.90;2252.80;;;;;;5092595;28;20028;-84
2021/11/25 21:17:09;;;;;;;298.58;185.75;;;179.90;2252.80;;;;;;5092626;28;20448;-83
2021/11/25 21:19:35;;;;;;;318.10;174.90;;;180.10;2252.80;;;;;;5092537;28;20359;-84
2021/11/25 21:22:00;;;;;;;295.45;156.70;;;180.00;2252.80;;;;;;5092836;28;20069;-84
2021/11/25 21:24:27;;;;;;;266.98;140.73;;;204.80;2252.80;;;;;;5092602;28;20023;-82
2021/11/25 21:26:58;;;;;;;249.20;133.02;;;205.00;2252.80;;;;;;5091909;28;20091;-83
2021/11/25 21:29:25;;;;;;;258.05;157.70;;;204.90;2252.80;;;;;;5090728;28;20020;-82
2021/11/25 21:31:51;;;;;;;261.80;163.52;;;204.90;2252.80;;;;;;5092223;28;20020;-84
2021/11/25 21:34:17;;;;;;;302.65;189.30;;;204.90;2252.80;;;;;;5110322;28;20024;-83
2021/11/25 21:36:42;;;;;;;304.63;185.45;;;204.90;2252.80;;;;;;5111253;28;20022;-84
2021/11/25 21:39:11;;;;;;;278.92;173.90;;;204.90;2252.80;;;;;;5092750;28;20012;-83
2021/11/25 21:41:39;;;;;;;278.83;174.20;;;204.90;2252.80;;;;;;5110316;28;20016;-85
2021/11/25 21:44:06;;;;;;;259.58;160.60;;;205.10;2252.80;;;;;;5092439;28;20028;-84
2021/11/25 21:46:33;;;;;;;250.05;156.57;;;205.10;2252.80;;;;;;5092744;28;20532;-84
2021/11/25 21:48:59;;;;;;;242.50;151.27;;;180.00;2252.80;;;;;;5091933;28;20139;-84
2021/11/25 21:51:27;;;;;;;211.75;135.65;;;205.60;2252.80;;;;;;5092134;28;20107;-84
2021/11/25 21:53:57;;;;;;;267.83;160.00;;;180.10;2252.80;;;;;;5110137;28;20024;-86
2021/11/25 21:56:28;;;;;;;309.83;177.18;;;180.10;2252.80;;;;;;5090820;28;20540;-81
2021/11/25 21:58:57;;;;;;;268.77;153.43;;;180.10;2252.80;;;;;;5091800;28;20077;-83
2021/11/25 22:01:23;;;;;;;272.05;163.52;;;180.10;2252.80;;;;;;5091740;28;20051;-83
2021/11/25 22:03:49;;;;;;;411.80;233.98;;;204.80;2252.80;;;;;;5091042;28;20387;-84
2021/11/25 22:06:16;;;;;;;226.77;138.02;;;204.90;2252.80;;;;;;5088805;28;20375;-84
2021/11/25 22:08:42;;;;;;;191.68;120.25;;;180.00;2252.80;;;;;;5096808;28;20012;-84
2021/11/25 22:11:08;;;;;;;206.07;124.93;;;179.90;2252.80;;;;;;5078123;28;20028;-83
2021/11/25 22:13:37;;;;;;;191.85;116.10;;;180.10;2252.80;;;;;;5078205;28;20020;-84
2021/11/25 22:16:04;;;;;;;203.50;121.78;;;180.00;2252.80;;;;;;5078039;28;20039;-84
2021/11/25 22:18:31;;;;;;;189.77;116.15;;;179.90;2252.80;;;;;;5077788;28;20103;-85
2021/11/25 22:26:27;;;;;;;111.85;70.68;;;180.00;2252.80;;;;;;5097227;28;20039;-84
2021/11/25 22:28:53;;;;;;;110.22;68.88;;;179.90;2252.80;;;;;;5077984;28;20024;-85
2021/11/25 22:31:19;;;;;;;162.98;88.70;;;180.00;2252.80;;;;;;5078222;28;20067;-84
2021/11/25 22:33:45;;;;;;;140.95;81.75;;;180.10;2252.80;;;;;;5080019;28;20107;-83
2021/11/25 22:36:11;;;;;;;134.70;87.82;;;180.10;2252.80;;;;;;5079340;28;20115;-81
2021/11/25 22:38:37;;;;;;;107.05;66.85;;;180.10;2252.80;;;;;;5077061;28;20086;-83
2021/11/25 22:41:03;;;;;;;146.77;85.15;;;179.90;2252.80;;;;;;5077381;28;20020;-82
2021/11/25 22:43:29;;;;;;;167.02;97.85;;;180.10;2252.80;;;;;;5095525;28;20035;-84
2021/11/25 22:45:58;;;;;;;124.43;75.68;;;204.80;2252.80;;;;;;5077795;28;20028;-85
2021/11/25 22:48:26;;;;;;;104.63;64.72;;;179.70;2252.80;;;;;;5077691;28;20379;-85
2021/11/25 22:50:52;;;;;;;119.45;72.25;;;180.00;2252.80;;;;;;5077297;28;20532;-85
2021/11/25 22:53:29;;;;;;;113.38;71.20;;;180.00;2252.80;;;;;;5077943;28;20111;-85
2021/11/25 22:56:03;;;;;;;112.18;71.78;;;180.10;2252.80;;;;;;5077345;28;20131;-84
2021/11/25 22:58:29;;;;;;;131.07;75.95;;;204.80;2252.80;;;;;;5077446;28;20102;-86
2021/11/25 23:00:54;;;;;;;93.68;58.33;;;204.80;2252.80;;;;;;5077230;28;20092;-85
2021/11/25 23:03:20;;;;;;;84.82;57.08;;;204.90;2252.80;;;;;;5077416;28;20016;-87
2021/11/25 23:07:08;;;;;;;;;;;;;;;;;;;;;
2021/11/25 23:20:10;;;;;;;105.57;71.85;;;204.90;2252.80;;;;;;4999755;28;20033;-91
2021/11/25 23:33:43;;;;;;;109.97;70.65;;;180.10;2252.80;;;;;;4906964;29;20099;-90
2021/11/25 23:36:12;;;;;;;133.77;79.75;;;204.90;2252.80;;;;;;4905675;29;20099;-89
2021/11/25 23:38:38;;;;;;;143.82;86.43;;;204.80;2252.80;;;;;;4920597;29;20032;-85
2021/11/25 23:41:05;;;;;;;158.95;89.97;;;204.90;2252.80;;;;;;5040881;28;20079;-85
2021/11/25 23:43:33;;;;;;;197.70;116.00;;;204.80;2252.80;;;;;;5046110;28;20020;-86
2021/11/25 23:46:04;;;;;;;167.43;94.63;;;180.10;2252.80;;;;;;5041763;28;20024;-86
2021/11/25 23:48:38;;;;;;;144.73;87.28;;;180.10;2252.80;;;;;;5049276;28;20057;-85
2021/11/25 23:51:09;;;;;;;146.18;87.13;;;179.90;2252.80;;;;;;5047742;28;20044;-85
2021/11/25 23:53:36;;;;;;;143.65;85.45;;;179.80;2252.80;;;;;;5048450;28;20051;-87
2021/11/25 23:56:06;;;;;;;174.82;95.93;;;179.90;2252.80;;;;;;5048776;28;20065;-86
2021/11/25 23:58:33;;;;;;;157.40;87.40;;;180.00;2252.80;;;;;;5048508;28;20017;-86
